sensor_id;sensor_type;location;lat;lon;timestamp;temperature;humidity
33580;DHT22;19909;43.644;-79.438;2023-01-25T00:02:22;19.60;32.70
33580;DHT22;19909;43.644;-79.438;2023-01-25T00:04:49;19.60;32.80
33580;DHT22;19909;43.644;-79.438;2023-01-25T00:07:16;19.60;33.10
33580;DHT22;19909;43.644;-79.438;2023-01-25T00:09:43;19.60;33.20
33580;DHT22;19909;43.644;-79.438;2023-01-25T00:12:09;19.60;33.10
33580;DHT22;19909;43.644;-79.438;2023-01-25T00:14:36;19.60;32.90
33580;DHT22;19909;43.644;-79.438;2023-01-25T00:17:02;19.60;32.80
33580;DHT22;19909;43.644;-79.438;2023-01-25T00:19:29;19.60;32.90
33580;DHT22;19909;43.644;-79.438;2023-01-25T00:21:56;19.60;33.10
33580;DHT22;19909;43.644;-79.438;2023-01-25T00:24:22;19.50;33.10
33580;DHT22;19909;43.644;-79.438;2023-01-25T00:26:50;19.50;33.10
33580;DHT22;19909;43.644;-79.438;2023-01-25T00:29:17;19.50;32.90
33580;DHT22;19909;43.644;-79.438;2023-01-25T00:39:20;19.50;33.20
33580;DHT22;19909;43.644;-79.438;2023-01-25T00:41:46;19.50;33.30
33580;DHT22;19909;43.644;-79.438;2023-01-25T00:44:12;19.50;33.00
33580;DHT22;19909;43.644;-79.438;2023-01-25T00:46:39;19.50;33.60
33580;DHT22;19909;43.644;-79.438;2023-01-25T00:49:05;19.40;33.00
33580;DHT22;19909;43.644;-79.438;2023-01-25T00:51:32;19.40;33.10
33580;DHT22;19909;43.644;-79.438;2023-01-25T00:53:58;19.50;33.20
33580;DHT22;19909;43.644;-79.438;2023-01-25T00:56:25;19.40;33.90
33580;DHT22;19909;43.644;-79.438;2023-01-25T00:58:51;19.40;33.20
33580;DHT22;19909;43.644;-79.438;2023-01-25T01:01:17;19.40;33.10
33580;DHT22;19909;43.644;-79.438;2023-01-25T01:03:43;19.40;33.00
33580;DHT22;19909;43.644;-79.438;2023-01-25T01:06:11;19.40;33.20
33580;DHT22;19909;43.644;-79.438;2023-01-25T01:08:41;19.40;33.80
33580;DHT22;19909;43.644;-79.438;2023-01-25T01:11:09;19.40;33.30
33580;DHT22;19909;43.644;-79.438;2023-01-25T01:13:37;19.30;33.00
33580;DHT22;19909;43.644;-79.438;2023-01-25T01:16:05;19.40;33.10
33580;DHT22;19909;43.644;-79.438;2023-01-25T01:18:35;19.30;33.10
33580;DHT22;19909;43.644;-79.438;2023-01-25T01:21:02;19.30;33.10
33580;DHT22;19909;43.644;-79.438;2023-01-25T01:23:29;19.30;33.10
33580;DHT22;19909;43.644;-79.438;2023-01-25T01:25:58;19.30;33.30
33580;DHT22;19909;43.644;-79.438;2023-01-25T01:28:24;19.30;33.30
33580;DHT22;19909;43.644;-79.438;2023-01-25T01:30:50;19.30;33.30
33580;DHT22;19909;43.644;-79.438;2023-01-25T01:33:16;19.30;33.20
33580;DHT22;19909;43.644;-79.438;2023-01-25T01:35:43;19.20;33.20
33580;DHT22;19909;43.644;-79.438;2023-01-25T01:38:11;19.30;33.20
33580;DHT22;19909;43.644;-79.438;2023-01-25T01:40:44;19.30;33.30
33580;DHT22;19909;43.644;-79.438;2023-01-25T01:43:21;19.30;33.40
33580;DHT22;19909;43.644;-79.438;2023-01-25T01:50:54;19.20;33.30
33580;DHT22;19909;43.644;-79.438;2023-01-25T01:53:23;19.20;33.20
33580;DHT22;19909;43.644;-79.438;2023-01-25T01:55:57;19.20;33.40
33580;DHT22;19909;43.644;-79.438;2023-01-25T01:58:26;19.20;33.40
33580;DHT22;19909;43.644;-79.438;2023-01-25T02:00:52;19.20;33.30
33580;DHT22;19909;43.644;-79.438;2023-01-25T02:03:18;19.20;33.20
33580;DHT22;19909;43.644;-79.438;2023-01-25T02:06:01;19.20;33.30
33580;DHT22;19909;43.644;-79.438;2023-01-25T02:08:33;19.20;33.30
33580;DHT22;19909;43.644;-79.438;2023-01-25T02:11:03;19.20;33.40
33580;DHT22;19909;43.644;-79.438;2023-01-25T02:13:31;19.20;33.40
33580;DHT22;19909;43.644;-79.438;2023-01-25T02:15:57;19.20;33.40
33580;DHT22;19909;43.644;-79.438;2023-01-25T02:18:24;19.20;33.30
33580;DHT22;19909;43.644;-79.438;2023-01-25T02:20:55;19.10;33.30
33580;DHT22;19909;43.644;-79.438;2023-01-25T02:26:08;19.10;33.40
33580;DHT22;19909;43.644;-79.438;2023-01-25T02:29:16;19.10;33.50
33580;DHT22;19909;43.644;-79.438;2023-01-25T02:31:36;19.10;33.40
33580;DHT22;19909;43.644;-79.438;2023-01-25T02:34:02;19.10;33.30
33580;DHT22;19909;43.644;-79.438;2023-01-25T02:36:30;19.10;33.30
33580;DHT22;19909;43.644;-79.438;2023-01-25T02:39:04;19.10;33.40
33580;DHT22;19909;43.644;-79.438;2023-01-25T02:41:36;19.10;33.40
33580;DHT22;19909;43.644;-79.438;2023-01-25T02:44:07;19.10;33.40
33580;DHT22;19909;43.644;-79.438;2023-01-25T02:46:36;19.00;33.30
33580;DHT22;19909;43.644;-79.438;2023-01-25T02:49:03;19.00;33.20
33580;DHT22;19909;43.644;-79.438;2023-01-25T02:51:32;19.00;33.20
33580;DHT22;19909;43.644;-79.438;2023-01-25T02:54:00;19.00;33.30
33580;DHT22;19909;43.644;-79.438;2023-01-25T02:56:27;19.00;33.40
33580;DHT22;19909;43.644;-79.438;2023-01-25T02:58:53;19.00;33.40
33580;DHT22;19909;43.644;-79.438;2023-01-25T03:01:20;19.00;33.40
33580;DHT22;19909;43.644;-79.438;2023-01-25T03:03:46;19.00;33.30
33580;DHT22;19909;43.644;-79.438;2023-01-25T03:06:12;19.00;33.20
33580;DHT22;19909;43.644;-79.438;2023-01-25T03:08:39;19.00;33.20
33580;DHT22;19909;43.644;-79.438;2023-01-25T03:11:05;19.00;33.30
33580;DHT22;19909;43.644;-79.438;2023-01-25T03:13:33;19.00;33.40
33580;DHT22;19909;43.644;-79.438;2023-01-25T03:16:05;19.00;33.40
33580;DHT22;19909;43.644;-79.438;2023-01-25T03:18:32;19.00;33.40
33580;DHT22;19909;43.644;-79.438;2023-01-25T03:23:35;18.90;33.30
33580;DHT22;19909;43.644;-79.438;2023-01-25T03:28:38;18.90;33.30
33580;DHT22;19909;43.644;-79.438;2023-01-25T03:31:05;18.90;33.40
33580;DHT22;19909;43.644;-79.438;2023-01-25T03:33:32;18.90;33.30
33580;DHT22;19909;43.644;-79.438;2023-01-25T03:35:58;18.90;33.30
33580;DHT22;19909;43.644;-79.438;2023-01-25T03:38:25;18.90;33.20
33580;DHT22;19909;43.644;-79.438;2023-01-25T03:40:52;18.90;33.40
33580;DHT22;19909;43.644;-79.438;2023-01-25T03:43:18;18.90;33.40
33580;DHT22;19909;43.644;-79.438;2023-01-25T03:45:44;18.90;33.40
33580;DHT22;19909;43.644;-79.438;2023-01-25T03:48:10;18.90;33.30
33580;DHT22;19909;43.644;-79.438;2023-01-25T03:50:37;18.90;33.20
33580;DHT22;19909;43.644;-79.438;2023-01-25T03:53:23;18.90;33.30
33580;DHT22;19909;43.644;-79.438;2023-01-25T03:56:06;18.80;33.30
33580;DHT22;19909;43.644;-79.438;2023-01-25T03:58:34;18.80;33.30
33580;DHT22;19909;43.644;-79.438;2023-01-25T04:01:01;18.80;33.30
33580;DHT22;19909;43.644;-79.438;2023-01-25T04:03:28;18.90;33.30
33580;DHT22;19909;43.644;-79.438;2023-01-25T04:05:55;18.80;33.20
33580;DHT22;19909;43.644;-79.438;2023-01-25T04:08:23;18.80;33.30
33580;DHT22;19909;43.644;-79.438;2023-01-25T04:10:54;18.80;33.30
33580;DHT22;19909;43.644;-79.438;2023-01-25T04:13:22;18.80;33.40
33580;DHT22;19909;43.644;-79.438;2023-01-25T04:15:48;18.80;33.30
33580;DHT22;19909;43.644;-79.438;2023-01-25T04:18:15;18.80;33.30
33580;DHT22;19909;43.644;-79.438;2023-01-25T04:20:42;18.80;33.20
33580;DHT22;19909;43.644;-79.438;2023-01-25T04:23:09;18.80;33.30
33580;DHT22;19909;43.644;-79.438;2023-01-25T04:25:36;18.80;33.40
33580;DHT22;19909;43.644;-79.438;2023-01-25T04:28:02;18.80;33.50
33580;DHT22;19909;43.644;-79.438;2023-01-25T04:30:29;18.80;33.40
33580;DHT22;19909;43.644;-79.438;2023-01-25T04:32:55;18.80;33.30
33580;DHT22;19909;43.644;-79.438;2023-01-25T04:35:21;18.80;33.30
33580;DHT22;19909;43.644;-79.438;2023-01-25T04:37:58;18.80;33.30
33580;DHT22;19909;43.644;-79.438;2023-01-25T04:40:25;18.80;33.80
33580;DHT22;19909;43.644;-79.438;2023-01-25T04:42:51;18.70;33.40
33580;DHT22;19909;43.644;-79.438;2023-01-25T04:45:17;18.80;33.40
33580;DHT22;19909;43.644;-79.438;2023-01-25T04:47:43;18.70;33.30
33580;DHT22;19909;43.644;-79.438;2023-01-25T04:50:10;18.70;33.30
33580;DHT22;19909;43.644;-79.438;2023-01-25T04:52:36;18.70;33.30
33580;DHT22;19909;43.644;-79.438;2023-01-25T04:55:02;18.70;33.40
33580;DHT22;19909;43.644;-79.438;2023-01-25T04:57:29;18.70;33.40
33580;DHT22;19909;43.644;-79.438;2023-01-25T04:59:55;18.70;33.40
33580;DHT22;19909;43.644;-79.438;2023-01-25T05:02:21;18.70;33.40
33580;DHT22;19909;43.644;-79.438;2023-01-25T05:04:47;18.70;33.20
33580;DHT22;19909;43.644;-79.438;2023-01-25T05:07:14;18.70;33.40
33580;DHT22;19909;43.644;-79.438;2023-01-25T05:09:40;18.70;33.50
33580;DHT22;19909;43.644;-79.438;2023-01-25T05:12:06;18.70;33.70
33580;DHT22;19909;43.644;-79.438;2023-01-25T05:14:37;18.70;33.50
33580;DHT22;19909;43.644;-79.438;2023-01-25T05:17:04;18.70;33.40
33580;DHT22;19909;43.644;-79.438;2023-01-25T05:19:31;18.70;33.40
33580;DHT22;19909;43.644;-79.438;2023-01-25T05:21:57;18.70;33.40
33580;DHT22;19909;43.644;-79.438;2023-01-25T05:24:28;18.70;33.60
33580;DHT22;19909;43.644;-79.438;2023-01-25T05:26:56;18.70;33.70
33580;DHT22;19909;43.644;-79.438;2023-01-25T05:29:26;18.60;33.60
33580;DHT22;19909;43.644;-79.438;2023-01-25T05:31:52;18.60;33.40
33580;DHT22;19909;43.644;-79.438;2023-01-25T05:34:19;18.60;33.30
33580;DHT22;19909;43.644;-79.438;2023-01-25T05:36:45;18.70;33.50
33580;DHT22;19909;43.644;-79.438;2023-01-25T05:39:11;18.70;33.60
33580;DHT22;19909;43.644;-79.438;2023-01-25T05:41:37;18.70;33.70
33580;DHT22;19909;43.644;-79.438;2023-01-25T05:44:04;18.60;33.50
33580;DHT22;19909;43.644;-79.438;2023-01-25T05:46:30;18.70;33.60
33580;DHT22;19909;43.644;-79.438;2023-01-25T05:48:56;18.60;33.40
33580;DHT22;19909;43.644;-79.438;2023-01-25T05:51:23;18.60;33.40
33580;DHT22;19909;43.644;-79.438;2023-01-25T05:53:49;18.60;33.50
33580;DHT22;19909;43.644;-79.438;2023-01-25T05:56:15;18.60;33.50
33580;DHT22;19909;43.644;-79.438;2023-01-25T05:58:42;18.70;33.60
33580;DHT22;19909;43.644;-79.438;2023-01-25T06:01:09;18.60;33.40
33580;DHT22;19909;43.644;-79.438;2023-01-25T06:03:36;18.60;33.40
33580;DHT22;19909;43.644;-79.438;2023-01-25T06:06:02;18.60;33.40
33580;DHT22;19909;43.644;-79.438;2023-01-25T06:08:29;18.60;33.40
33580;DHT22;19909;43.644;-79.438;2023-01-25T06:10:56;18.60;33.50
33580;DHT22;19909;43.644;-79.438;2023-01-25T06:13:23;18.60;33.50
33580;DHT22;19909;43.644;-79.438;2023-01-25T06:15:54;18.60;33.50
33580;DHT22;19909;43.644;-79.438;2023-01-25T06:18:21;18.60;33.40
33580;DHT22;19909;43.644;-79.438;2023-01-25T06:20:49;18.60;33.30
33580;DHT22;19909;43.644;-79.438;2023-01-25T06:23:16;18.60;33.40
33580;DHT22;19909;43.644;-79.438;2023-01-25T06:25:42;18.60;33.50
33580;DHT22;19909;43.644;-79.438;2023-01-25T06:28:08;18.60;33.60
33580;DHT22;19909;43.644;-79.438;2023-01-25T06:30:35;18.60;33.80
33580;DHT22;19909;43.644;-79.438;2023-01-25T06:33:01;18.50;33.30
33580;DHT22;19909;43.644;-79.438;2023-01-25T06:35:27;18.50;33.30
33580;DHT22;19909;43.644;-79.438;2023-01-25T06:37:56;18.60;33.40
33580;DHT22;19909;43.644;-79.438;2023-01-25T06:40:22;18.50;33.40
33580;DHT22;19909;43.644;-79.438;2023-01-25T06:42:49;18.50;33.60
33580;DHT22;19909;43.644;-79.438;2023-01-25T06:45:15;18.50;33.50
33580;DHT22;19909;43.644;-79.438;2023-01-25T06:47:41;18.50;33.30
33580;DHT22;19909;43.644;-79.438;2023-01-25T06:50:09;18.60;33.30
33580;DHT22;19909;43.644;-79.438;2023-01-25T06:52:35;18.50;33.30
33580;DHT22;19909;43.644;-79.438;2023-01-25T06:55:03;18.50;33.40
33580;DHT22;19909;43.644;-79.438;2023-01-25T06:57:29;18.50;33.60
33580;DHT22;19909;43.644;-79.438;2023-01-25T06:59:55;18.50;33.50
33580;DHT22;19909;43.644;-79.438;2023-01-25T07:02:21;18.50;33.40
33580;DHT22;19909;43.644;-79.438;2023-01-25T07:04:48;18.50;33.30
33580;DHT22;19909;43.644;-79.438;2023-01-25T07:07:14;18.50;33.30
33580;DHT22;19909;43.644;-79.438;2023-01-25T07:09:40;18.50;33.50
33580;DHT22;19909;43.644;-79.438;2023-01-25T07:12:06;18.50;33.50
33580;DHT22;19909;43.644;-79.438;2023-01-25T07:14:32;18.50;33.50
33580;DHT22;19909;43.644;-79.438;2023-01-25T07:16:59;18.50;33.40
33580;DHT22;19909;43.644;-79.438;2023-01-25T07:19:25;18.50;33.30
33580;DHT22;19909;43.644;-79.438;2023-01-25T07:21:51;18.50;33.40
33580;DHT22;19909;43.644;-79.438;2023-01-25T07:24:18;18.50;33.50
33580;DHT22;19909;43.644;-79.438;2023-01-25T07:26:45;18.50;33.60
33580;DHT22;19909;43.644;-79.438;2023-01-25T07:29:15;18.50;33.70
33580;DHT22;19909;43.644;-79.438;2023-01-25T07:31:41;18.50;33.40
33580;DHT22;19909;43.644;-79.438;2023-01-25T07:34:11;18.50;33.30
33580;DHT22;19909;43.644;-79.438;2023-01-25T07:36:40;18.50;33.40
33580;DHT22;19909;43.644;-79.438;2023-01-25T07:39:12;18.50;33.40
33580;DHT22;19909;43.644;-79.438;2023-01-25T07:41:39;18.40;33.60
33580;DHT22;19909;43.644;-79.438;2023-01-25T07:44:05;18.40;33.60
33580;DHT22;19909;43.644;-79.438;2023-01-25T07:46:32;18.40;33.50
33580;DHT22;19909;43.644;-79.438;2023-01-25T07:48:59;18.40;33.40
33580;DHT22;19909;43.644;-79.438;2023-01-25T07:51:25;18.40;33.40
33580;DHT22;19909;43.644;-79.438;2023-01-25T07:54:00;18.40;33.50
33580;DHT22;19909;43.644;-79.438;2023-01-25T07:56:31;18.40;33.50
33580;DHT22;19909;43.644;-79.438;2023-01-25T07:58:59;18.40;33.60
33580;DHT22;19909;43.644;-79.438;2023-01-25T08:01:28;18.40;33.60
33580;DHT22;19909;43.644;-79.438;2023-01-25T08:03:57;18.40;33.40
33580;DHT22;19909;43.644;-79.438;2023-01-25T08:06:25;18.40;33.40
33580;DHT22;19909;43.644;-79.438;2023-01-25T08:08:56;18.30;33.40
33580;DHT22;19909;43.644;-79.438;2023-01-25T08:11:27;18.40;33.60
33580;DHT22;19909;43.644;-79.438;2023-01-25T08:13:54;18.40;33.60
33580;DHT22;19909;43.644;-79.438;2023-01-25T08:16:23;18.40;33.60
33580;DHT22;19909;43.644;-79.438;2023-01-25T08:18:52;18.40;33.50
33580;DHT22;19909;43.644;-79.438;2023-01-25T08:21:19;18.40;33.40
33580;DHT22;19909;43.644;-79.438;2023-01-25T08:23:46;18.40;33.50
33580;DHT22;19909;43.644;-79.438;2023-01-25T08:26:14;18.30;33.50
33580;DHT22;19909;43.644;-79.438;2023-01-25T08:28:42;18.30;33.50
33580;DHT22;19909;43.644;-79.438;2023-01-25T08:31:18;18.30;33.50
33580;DHT22;19909;43.644;-79.438;2023-01-25T08:33:44;18.40;33.40
33580;DHT22;19909;43.644;-79.438;2023-01-25T08:36:12;18.30;33.50
33580;DHT22;19909;43.644;-79.438;2023-01-25T08:38:39;18.30;33.50
33580;DHT22;19909;43.644;-79.438;2023-01-25T08:41:06;18.30;33.50
33580;DHT22;19909;43.644;-79.438;2023-01-25T08:43:34;18.30;33.70
33580;DHT22;19909;43.644;-79.438;2023-01-25T08:46:00;18.30;33.60
33580;DHT22;19909;43.644;-79.438;2023-01-25T08:48:27;18.30;33.40
33580;DHT22;19909;43.644;-79.438;2023-01-25T08:50:53;18.30;33.40
33580;DHT22;19909;43.644;-79.438;2023-01-25T08:53:19;18.40;33.60
33580;DHT22;19909;43.644;-79.438;2023-01-25T08:55:46;18.30;33.70
33580;DHT22;19909;43.644;-79.438;2023-01-25T08:58:13;18.30;33.70
33580;DHT22;19909;43.644;-79.438;2023-01-25T09:00:42;18.30;33.60
33580;DHT22;19909;43.644;-79.438;2023-01-25T09:03:09;18.30;33.50
33580;DHT22;19909;43.644;-79.438;2023-01-25T09:05:38;18.30;33.50
33580;DHT22;19909;43.644;-79.438;2023-01-25T09:08:05;18.30;33.50
33580;DHT22;19909;43.644;-79.438;2023-01-25T09:10:32;18.30;33.60
33580;DHT22;19909;43.644;-79.438;2023-01-25T09:12:58;18.30;33.70
33580;DHT22;19909;43.644;-79.438;2023-01-25T09:15:25;18.30;33.70
33580;DHT22;19909;43.644;-79.438;2023-01-25T09:17:55;18.30;33.60
33580;DHT22;19909;43.644;-79.438;2023-01-25T09:20:22;18.30;33.50
33580;DHT22;19909;43.644;-79.438;2023-01-25T09:22:48;18.30;33.50
33580;DHT22;19909;43.644;-79.438;2023-01-25T09:25:15;18.30;33.60
33580;DHT22;19909;43.644;-79.438;2023-01-25T09:27:41;18.30;33.70
33580;DHT22;19909;43.644;-79.438;2023-01-25T09:30:09;18.30;33.70
33580;DHT22;19909;43.644;-79.438;2023-01-25T09:32:38;18.30;33.70
33580;DHT22;19909;43.644;-79.438;2023-01-25T09:35:04;18.30;33.60
33580;DHT22;19909;43.644;-79.438;2023-01-25T09:37:31;18.30;34.10
33580;DHT22;19909;43.644;-79.438;2023-01-25T09:39:57;18.20;33.60
33580;DHT22;19909;43.644;-79.438;2023-01-25T09:50:39;18.30;33.60
33580;DHT22;19909;43.644;-79.438;2023-01-25T09:56:07;18.20;33.60
33580;DHT22;19909;43.644;-79.438;2023-01-25T09:58:44;18.20;33.80
33580;DHT22;19909;43.644;-79.438;2023-01-25T10:01:17;18.20;33.70
33580;DHT22;19909;43.644;-79.438;2023-01-25T10:06:20;18.20;33.60
33580;DHT22;19909;43.644;-79.438;2023-01-25T10:09:24;18.20;33.70
33580;DHT22;19909;43.644;-79.438;2023-01-25T10:11:52;18.20;33.80
33580;DHT22;19909;43.644;-79.438;2023-01-25T10:14:19;18.20;33.80
33580;DHT22;19909;43.644;-79.438;2023-01-25T10:19:23;18.20;33.60
33580;DHT22;19909;43.644;-79.438;2023-01-25T10:22:03;18.20;33.70
33580;DHT22;19909;43.644;-79.438;2023-01-25T10:24:42;18.20;33.70
33580;DHT22;19909;43.644;-79.438;2023-01-25T10:29:47;18.20;33.90
33580;DHT22;19909;43.644;-79.438;2023-01-25T10:32:19;18.20;33.80
33580;DHT22;19909;43.644;-79.438;2023-01-25T10:34:49;18.20;33.70
33580;DHT22;19909;43.644;-79.438;2023-01-25T10:37:25;18.20;33.60
33580;DHT22;19909;43.644;-79.438;2023-01-25T10:43:01;18.20;33.90
33580;DHT22;19909;43.644;-79.438;2023-01-25T10:45:27;18.20;33.90
33580;DHT22;19909;43.644;-79.438;2023-01-25T10:48:05;18.20;33.70
33580;DHT22;19909;43.644;-79.438;2023-01-25T10:53:26;18.20;33.70
33580;DHT22;19909;43.644;-79.438;2023-01-25T10:56:11;18.20;33.80
33580;DHT22;19909;43.644;-79.438;2023-01-25T10:58:47;18.20;33.90
33580;DHT22;19909;43.644;-79.438;2023-01-25T11:01:29;18.20;33.90
33580;DHT22;19909;43.644;-79.438;2023-01-25T11:03:56;18.20;33.80
33580;DHT22;19909;43.644;-79.438;2023-01-25T11:06:37;18.20;33.80
33580;DHT22;19909;43.644;-79.438;2023-01-25T11:09:36;18.20;33.80
33580;DHT22;19909;43.644;-79.438;2023-01-25T11:12:15;18.20;33.90
33580;DHT22;19909;43.644;-79.438;2023-01-25T11:14:48;18.20;33.90
33580;DHT22;19909;43.644;-79.438;2023-01-25T11:17:29;18.10;33.80
33580;DHT22;19909;43.644;-79.438;2023-01-25T11:20:15;18.20;33.80
33580;DHT22;19909;43.644;-79.438;2023-01-25T11:22:56;18.20;33.80
33580;DHT22;19909;43.644;-79.438;2023-01-25T11:25:32;18.20;33.90
33580;DHT22;19909;43.644;-79.438;2023-01-25T11:28:28;18.10;33.90
33580;DHT22;19909;43.644;-79.438;2023-01-25T11:30:54;18.20;33.90
33580;DHT22;19909;43.644;-79.438;2023-01-25T11:33:21;18.20;33.80
33580;DHT22;19909;43.644;-79.438;2023-01-25T11:36:20;18.10;33.70
33580;DHT22;19909;43.644;-79.438;2023-01-25T11:39:15;18.10;33.90
33580;DHT22;19909;43.644;-79.438;2023-01-25T11:49:49;18.10;33.80
33580;DHT22;19909;43.644;-79.438;2023-01-25T12:07:01;18.10;33.70
33580;DHT22;19909;43.644;-79.438;2023-01-25T12:28:39;18.00;34.00
33580;DHT22;19909;43.644;-79.438;2023-01-25T12:31:17;18.10;33.90
33580;DHT22;19909;43.644;-79.438;2023-01-25T12:33:58;18.10;33.80
33580;DHT22;19909;43.644;-79.438;2023-01-25T12:36:35;18.10;33.80
33580;DHT22;19909;43.644;-79.438;2023-01-25T12:39:13;18.00;33.90
33580;DHT22;19909;43.644;-79.438;2023-01-25T12:42:13;18.10;34.00
33580;DHT22;19909;43.644;-79.438;2023-01-25T12:45:13;18.10;34.00
33580;DHT22;19909;43.644;-79.438;2023-01-25T12:47:50;18.00;33.90
33580;DHT22;19909;43.644;-79.438;2023-01-25T12:53:00;18.10;33.90
33580;DHT22;19909;43.644;-79.438;2023-01-25T12:55:29;18.10;34.00
33580;DHT22;19909;43.644;-79.438;2023-01-25T12:58:16;18.00;34.00
33580;DHT22;19909;43.644;-79.438;2023-01-25T13:04:09;18.00;33.90
33580;DHT22;19909;43.644;-79.438;2023-01-25T13:07:09;18.10;33.90
33580;DHT22;19909;43.644;-79.438;2023-01-25T13:10:02;18.10;33.90
33580;DHT22;19909;43.644;-79.438;2023-01-25T13:12:53;18.00;34.00
33580;DHT22;19909;43.644;-79.438;2023-01-25T13:15:40;18.00;34.00
33580;DHT22;19909;43.644;-79.438;2023-01-25T13:20:59;18.00;33.80
33580;DHT22;19909;43.644;-79.438;2023-01-25T13:23:33;18.00;33.90
33580;DHT22;19909;43.644;-79.438;2023-01-25T13:28:54;18.00;34.00
33580;DHT22;19909;43.644;-79.438;2023-01-25T13:34:09;18.00;33.90
33580;DHT22;19909;43.644;-79.438;2023-01-25T13:39:41;18.00;33.90
33580;DHT22;19909;43.644;-79.438;2023-01-25T13:44:41;18.00;34.00
33580;DHT22;19909;43.644;-79.438;2023-01-25T13:47:13;18.00;33.90
33580;DHT22;19909;43.644;-79.438;2023-01-25T13:49:59;18.00;33.80
33580;DHT22;19909;43.644;-79.438;2023-01-25T13:52:27;18.00;33.90
33580;DHT22;19909;43.644;-79.438;2023-01-25T13:54:56;18.00;33.90
33580;DHT22;19909;43.644;-79.438;2023-01-25T13:57:28;18.00;34.00
33580;DHT22;19909;43.644;-79.438;2023-01-25T14:00:14;18.00;33.90
33580;DHT22;19909;43.644;-79.438;2023-01-25T14:02:43;18.00;33.90
33580;DHT22;19909;43.644;-79.438;2023-01-25T14:05:18;18.00;33.70
33580;DHT22;19909;43.644;-79.438;2023-01-25T14:07:47;18.00;33.90
33580;DHT22;19909;43.644;-79.438;2023-01-25T14:10:18;18.00;33.90
33580;DHT22;19909;43.644;-79.438;2023-01-25T14:12:48;18.00;33.90
33580;DHT22;19909;43.644;-79.438;2023-01-25T14:15:24;18.00;33.90
33580;DHT22;19909;43.644;-79.438;2023-01-25T14:18:15;18.00;33.80
33580;DHT22;19909;43.644;-79.438;2023-01-25T14:20:44;18.00;33.80
33580;DHT22;19909;43.644;-79.438;2023-01-25T14:23:28;18.00;33.80
33580;DHT22;19909;43.644;-79.438;2023-01-25T14:25:56;18.00;33.80
33580;DHT22;19909;43.644;-79.438;2023-01-25T14:28:28;18.00;33.90
33580;DHT22;19909;43.644;-79.438;2023-01-25T14:30:57;18.00;33.90
33580;DHT22;19909;43.644;-79.438;2023-01-25T14:33:31;18.00;33.80
33580;DHT22;19909;43.644;-79.438;2023-01-25T14:36:16;18.00;34.30
33580;DHT22;19909;43.644;-79.438;2023-01-25T14:38:44;18.00;33.90
33580;DHT22;19909;43.644;-79.438;2023-01-25T14:43:49;17.90;33.90
33580;DHT22;19909;43.644;-79.438;2023-01-25T14:46:25;17.90;33.80
33580;DHT22;19909;43.644;-79.438;2023-01-25T14:49:37;17.90;33.60
33580;DHT22;19909;43.644;-79.438;2023-01-25T14:54:20;17.90;33.70
33580;DHT22;19909;43.644;-79.438;2023-01-25T14:59:35;17.90;33.80
33580;DHT22;19909;43.644;-79.438;2023-01-25T15:02:18;17.90;33.80
33580;DHT22;19909;43.644;-79.438;2023-01-25T15:05:16;17.90;33.70
33580;DHT22;19909;43.644;-79.438;2023-01-25T15:07:54;17.90;33.70
33580;DHT22;19909;43.644;-79.438;2023-01-25T15:10:26;17.90;33.80
33580;DHT22;19909;43.644;-79.438;2023-01-25T15:15:24;17.90;33.70
33580;DHT22;19909;43.644;-79.438;2023-01-25T15:17:50;17.90;33.70
33580;DHT22;19909;43.644;-79.438;2023-01-25T15:23:04;17.90;33.70
33580;DHT22;19909;43.644;-79.438;2023-01-25T15:25:31;17.90;33.80
33580;DHT22;19909;43.644;-79.438;2023-01-25T15:27:57;17.90;33.90
33580;DHT22;19909;43.644;-79.438;2023-01-25T15:30:23;17.90;33.90
33580;DHT22;19909;43.644;-79.438;2023-01-25T15:32:49;17.90;33.80
33580;DHT22;19909;43.644;-79.438;2023-01-25T15:35:18;17.90;33.70
33580;DHT22;19909;43.644;-79.438;2023-01-25T15:37:45;17.90;33.80
33580;DHT22;19909;43.644;-79.438;2023-01-25T15:40:12;17.90;33.90
33580;DHT22;19909;43.644;-79.438;2023-01-25T15:42:39;17.90;33.90
33580;DHT22;19909;43.644;-79.438;2023-01-25T15:45:07;17.90;33.90
33580;DHT22;19909;43.644;-79.438;2023-01-25T15:47:37;17.90;33.80
33580;DHT22;19909;43.644;-79.438;2023-01-25T15:50:04;17.90;33.80
33580;DHT22;19909;43.644;-79.438;2023-01-25T15:52:31;17.90;33.90
33580;DHT22;19909;43.644;-79.438;2023-01-25T15:54:57;17.90;33.90
33580;DHT22;19909;43.644;-79.438;2023-01-25T15:57:30;17.90;34.00
33580;DHT22;19909;43.644;-79.438;2023-01-25T15:59:56;17.90;33.90
33580;DHT22;19909;43.644;-79.438;2023-01-25T16:02:23;17.90;33.90
33580;DHT22;19909;43.644;-79.438;2023-01-25T16:04:51;17.90;33.80
33580;DHT22;19909;43.644;-79.438;2023-01-25T16:07:28;17.90;33.80
33580;DHT22;19909;43.644;-79.438;2023-01-25T16:09:55;17.90;34.00
33580;DHT22;19909;43.644;-79.438;2023-01-25T16:12:21;17.90;34.50
33580;DHT22;19909;43.644;-79.438;2023-01-25T16:14:47;17.90;33.90
33580;DHT22;19909;43.644;-79.438;2023-01-25T16:17:19;17.90;33.90
33580;DHT22;19909;43.644;-79.438;2023-01-25T16:19:46;17.90;33.90
33580;DHT22;19909;43.644;-79.438;2023-01-25T16:22:14;17.90;33.90
33580;DHT22;19909;43.644;-79.438;2023-01-25T16:24:41;17.90;34.00
33580;DHT22;19909;43.644;-79.438;2023-01-25T16:27:15;17.90;34.00
33580;DHT22;19909;43.644;-79.438;2023-01-25T16:29:46;17.90;34.00
33580;DHT22;19909;43.644;-79.438;2023-01-25T16:32:12;17.80;33.80
33580;DHT22;19909;43.644;-79.438;2023-01-25T16:34:38;17.90;33.90
33580;DHT22;19909;43.644;-79.438;2023-01-25T16:37:04;17.90;33.90
33580;DHT22;19909;43.644;-79.438;2023-01-25T16:39:30;17.80;33.90
33580;DHT22;19909;43.644;-79.438;2023-01-25T16:41:57;17.90;34.10
33580;DHT22;19909;43.644;-79.438;2023-01-25T16:44:23;17.80;34.00
33580;DHT22;19909;43.644;-79.438;2023-01-25T16:46:50;17.90;34.00
33580;DHT22;19909;43.644;-79.438;2023-01-25T16:49:23;17.90;33.90
33580;DHT22;19909;43.644;-79.438;2023-01-25T16:51:52;17.90;34.00
33580;DHT22;19909;43.644;-79.438;2023-01-25T16:54:19;17.80;33.90
33580;DHT22;19909;43.644;-79.438;2023-01-25T16:56:46;17.90;34.00
33580;DHT22;19909;43.644;-79.438;2023-01-25T16:59:12;17.80;34.00
33580;DHT22;19909;43.644;-79.438;2023-01-25T17:01:39;17.90;34.00
33580;DHT22;19909;43.644;-79.438;2023-01-25T17:04:07;17.90;33.90
33580;DHT22;19909;43.644;-79.438;2023-01-25T17:06:35;17.90;33.90
33580;DHT22;19909;43.644;-79.438;2023-01-25T17:09:05;17.90;34.00
33580;DHT22;19909;43.644;-79.438;2023-01-25T17:11:34;17.80;34.00
33580;DHT22;19909;43.644;-79.438;2023-01-25T17:14:01;17.80;34.00
33580;DHT22;19909;43.644;-79.438;2023-01-25T17:16:29;17.80;33.90
33580;DHT22;19909;43.644;-79.438;2023-01-25T17:18:59;17.80;33.90
33580;DHT22;19909;43.644;-79.438;2023-01-25T17:21:26;17.80;33.90